createdAt,value
2019-05-14T00:00:04.356Z,1036.36
2019-05-14T00:01:03.965Z,1036.22
2019-05-14T00:02:03.304Z,1036.22
2019-05-14T00:03:02.753Z,1036.22
2019-05-14T00:04:02.455Z,1036.22
2019-05-14T00:05:02.064Z,1036.2
2019-05-14T00:06:02.673Z,1036.2
2019-05-14T00:07:02.504Z,1036.2
2019-05-14T00:08:02.724Z,1036.2
2019-05-14T00:09:01.952Z,1036.2
2019-05-14T00:10:02.258Z,1036.2
2019-05-14T00:11:02.432Z,1036.2
2019-05-14T00:12:03.214Z,1036.2
2019-05-14T00:13:02.103Z,1036.2
2019-05-14T00:14:02.592Z,1036.2
2019-05-14T00:15:02.548Z,1036.2
2019-05-14T00:16:02.121Z,1036.2
2019-05-14T00:17:02.352Z,1036.25
2019-05-14T00:18:02.387Z,1036.25
2019-05-14T00:19:02.363Z,1036.25
2019-05-14T00:20:13.247Z,1036.25
2019-05-14T00:21:02.490Z,1036.09
2019-05-14T00:22:02.486Z,1036.09
2019-05-14T00:23:02.256Z,1036.09
2019-05-14T00:24:02.448Z,1036.09
2019-05-14T00:25:01.773Z,1036.04
2019-05-14T00:26:02.321Z,1036.04
2019-05-14T00:27:02.532Z,1036.04
2019-05-14T00:28:02.536Z,1036.04
2019-05-14T00:29:02.026Z,1036.05
2019-05-14T00:30:02.775Z,1036.05
2019-05-14T00:31:03.355Z,1036.05
2019-05-14T00:32:02.372Z,1036.05
2019-05-14T00:33:02.366Z,1036.08
2019-05-14T00:34:02.462Z,1036.08
2019-05-14T00:35:02.623Z,1036.08
2019-05-14T00:36:02.605Z,1036.08
2019-05-14T00:37:02.107Z,1036.04
2019-05-14T00:38:02.166Z,1036.04
2019-05-14T00:39:02.279Z,1036.04
2019-05-14T00:40:02.579Z,1036.04
2019-05-14T00:41:02.512Z,1036.13
2019-05-14T00:42:02.218Z,1036.13
2019-05-14T00:43:03.168Z,1036.13
2019-05-14T00:44:02.627Z,1036.13
2019-05-14T00:45:01.755Z,1035.96
2019-05-14T00:46:02.162Z,1035.96
2019-05-14T00:47:02.644Z,1035.96
2019-05-14T00:48:02.421Z,1035.96
2019-05-14T00:49:02.193Z,1036.11
2019-05-14T00:50:02.570Z,1036.11
2019-05-14T00:51:02.767Z,1036.11
2019-05-14T00:52:02.699Z,1036.11
2019-05-14T00:53:02.415Z,1036.18
2019-05-14T00:54:02.065Z,1036.18
2019-05-14T00:55:02.261Z,1036.18
2019-05-14T00:56:02.678Z,1036.18
2019-05-14T00:57:01.865Z,1036.09
2019-05-14T00:58:02.806Z,1036.09
2019-05-14T00:59:01.910Z,1036.09
2019-05-14T01:00:04.120Z,1036.12
2019-05-14T01:01:02.180Z,1036.12
2019-05-14T01:02:03.532Z,1036.12
2019-05-14T01:03:02.487Z,1036.12
2019-05-14T01:04:02.612Z,1036.11
2019-05-14T01:05:02.253Z,1036.11
2019-05-14T01:06:03.467Z,1036.11
2019-05-14T01:07:02.235Z,1036.11
2019-05-14T01:08:06.039Z,1036.08
2019-05-14T01:09:01.846Z,1036.08
2019-05-14T01:10:05.485Z,1036.08
2019-05-14T01:11:02.096Z,1036.08
2019-05-14T01:12:02.333Z,1036.11
2019-05-14T01:13:02.518Z,1036.11
2019-05-14T01:14:02.151Z,1036.11
2019-05-14T01:15:14.009Z,1036.11
2019-05-14T01:16:02.221Z,1036.09
2019-05-14T01:17:02.458Z,1036.09
2019-05-14T01:18:02.679Z,1036.09
2019-05-14T01:19:02.498Z,1036.09
2019-05-14T01:20:03.525Z,1035.96
2019-05-14T01:21:02.481Z,1035.96
2019-05-14T01:22:02.599Z,1035.96
2019-05-14T01:23:02.721Z,1035.96
2019-05-14T01:24:02.449Z,1036.01
2019-05-14T01:25:02.274Z,1036.01
2019-05-14T01:26:02.828Z,1036.01
2019-05-14T01:27:02.181Z,1036.01
2019-05-14T01:28:02.591Z,1036.14
2019-05-14T01:29:01.861Z,1036.14
2019-05-14T01:30:02.531Z,1036.14
2019-05-14T01:31:01.699Z,1036.14
2019-05-14T01:32:01.865Z,1036.1
2019-05-14T01:33:02.304Z,1036.1
2019-05-14T01:34:02.645Z,1036.1
2019-05-14T01:35:02.572Z,1036.1
2019-05-14T01:36:02.699Z,1036.04
2019-05-14T01:37:02.929Z,1036.04
2019-05-14T01:38:03.144Z,1036.04
2019-05-14T01:39:02.386Z,1036.04
2019-05-14T01:40:02.651Z,1036.07
2019-05-14T01:41:02.509Z,1036.07
2019-05-14T01:42:03.025Z,1036.07
2019-05-14T01:43:03.063Z,1036.07
2019-05-14T01:44:02.199Z,1035.95
2019-05-14T01:45:02.974Z,1035.95
2019-05-14T01:46:02.679Z,1035.95
2019-05-14T01:47:02.401Z,1035.95
2019-05-14T01:48:01.987Z,1035.96
2019-05-14T01:49:02.138Z,1035.96
2019-05-14T01:50:02.525Z,1035.96
2019-05-14T01:51:02.689Z,1035.96
2019-05-14T01:52:02.209Z,1036.14
2019-05-14T01:53:01.994Z,1036.14
2019-05-14T01:54:02.226Z,1036.14
2019-05-14T01:55:02.532Z,1036.14
2019-05-14T01:56:02.201Z,1035.89
2019-05-14T01:57:02.628Z,1035.89
2019-05-14T01:58:02.825Z,1035.89
2019-05-14T01:59:02.276Z,1035.89
2019-05-14T02:00:04.367Z,1035.89
2019-05-14T02:01:02.615Z,1035.89
2019-05-14T02:02:02.808Z,1035.89
2019-05-14T02:03:02.302Z,1035.89
2019-05-14T02:04:02.730Z,1035.86
2019-05-14T02:05:02.419Z,1035.86
2019-05-14T02:06:02.405Z,1035.86
2019-05-14T02:07:02.739Z,1035.86
2019-05-14T02:08:02.310Z,1035.98
2019-05-14T02:09:02.440Z,1035.98
2019-05-14T02:10:02.282Z,1035.98
2019-05-14T02:11:02.558Z,1035.98
2019-05-14T02:12:02.656Z,1035.93
2019-05-14T02:13:02.455Z,1035.93
2019-05-14T02:14:02.890Z,1035.93
2019-05-14T02:15:02.471Z,1035.93
2019-05-14T02:16:02.979Z,1035.9
2019-05-14T02:17:02.394Z,1035.9
2019-05-14T02:18:02.815Z,1035.9
2019-05-14T02:19:01.776Z,1035.9
2019-05-14T02:20:02.502Z,1035.84
2019-05-14T02:21:02.189Z,1035.84
2019-05-14T02:22:02.552Z,1035.84
2019-05-14T02:23:02.341Z,1035.84
2019-05-14T02:24:02.550Z,1035.72
2019-05-14T02:25:02.724Z,1035.72
2019-05-14T02:26:03.062Z,1035.72
2019-05-14T02:27:02.447Z,1035.72
2019-05-14T02:28:01.842Z,1035.77
2019-05-14T02:29:02.421Z,1035.77
2019-05-14T02:30:02.688Z,1035.77
2019-05-14T02:31:04.358Z,1035.77
2019-05-14T02:32:01.695Z,1035.8
2019-05-14T02:33:01.909Z,1035.8
2019-05-14T02:34:02.145Z,1035.8
2019-05-14T02:35:02.480Z,1035.8
2019-05-14T02:36:02.585Z,1035.71
2019-05-14T02:37:01.825Z,1035.71
2019-05-14T02:38:01.705Z,1035.71
2019-05-14T02:39:01.969Z,1035.75
2019-05-14T02:40:02.216Z,1035.75
2019-05-14T02:41:02.389Z,1035.75
2019-05-14T02:42:02.444Z,1035.75
2019-05-14T02:43:02.567Z,1035.73
2019-05-14T02:44:01.832Z,1035.73
2019-05-14T02:45:02.116Z,1035.73
2019-05-14T02:46:18.691Z,1035.73
2019-05-14T02:47:02.386Z,1035.67
2019-05-14T02:48:02.574Z,1035.67
2019-05-14T02:49:01.769Z,1035.67
2019-05-14T02:50:02.075Z,1035.67
2019-05-14T02:51:02.024Z,1035.58
2019-05-14T02:52:02.143Z,1035.58
2019-05-14T02:53:02.440Z,1035.58
2019-05-14T02:54:01.642Z,1035.58
2019-05-14T02:55:01.963Z,1035.55
2019-05-14T02:56:02.068Z,1035.55
2019-05-14T02:57:02.216Z,1035.55
2019-05-14T02:58:02.031Z,1035.55
2019-05-14T02:59:09.502Z,1035.54
2019-05-14T03:00:02.546Z,1035.54
2019-05-14T03:01:02.091Z,1035.54
2019-05-14T03:02:02.289Z,1035.54
2019-05-14T03:03:02.629Z,1035.44
2019-05-14T03:04:01.736Z,1035.44
2019-05-14T03:05:02.107Z,1035.44
2019-05-14T03:06:02.338Z,1035.44
2019-05-14T03:07:02.691Z,1035.62
2019-05-14T03:08:01.782Z,1035.62
2019-05-14T03:09:01.983Z,1035.62
2019-05-14T03:10:02.345Z,1035.62
2019-05-14T03:11:02.451Z,1035.52
2019-05-14T03:12:01.700Z,1035.52
2019-05-14T03:13:01.963Z,1035.52
2019-05-14T03:14:02.110Z,1035.52
2019-05-14T03:15:02.433Z,1035.48
2019-05-14T03:16:34.900Z,1035.48
2019-05-14T03:17:02.574Z,1035.48
2019-05-14T03:18:01.819Z,1035.48
2019-05-14T03:19:02.093Z,1035.54
2019-05-14T03:20:02.463Z,1035.54
2019-05-14T03:21:02.606Z,1035.54
2019-05-14T03:22:01.771Z,1035.54
2019-05-14T03:23:17.563Z,1035.45
2019-05-14T03:24:02.202Z,1035.45
2019-05-14T03:25:02.510Z,1035.45
2019-05-14T03:26:01.694Z,1035.45
2019-05-14T03:27:01.883Z,1035.53
2019-05-14T03:28:01.746Z,1035.53
2019-05-14T03:29:01.867Z,1035.53
2019-05-14T03:30:02.424Z,1035.53
2019-05-14T03:31:04.649Z,1035.43
2019-05-14T03:32:04.237Z,1035.43
2019-05-14T03:33:03.759Z,1035.43
2019-05-14T03:34:04.274Z,1035.43
2019-05-14T03:35:05.092Z,1035.42
2019-05-14T03:36:19.831Z,1035.42
2019-05-14T03:37:04.527Z,1035.42
2019-05-14T03:38:01.774Z,1035.42
2019-05-14T03:39:01.855Z,1035.49
2019-05-14T03:40:02.175Z,1035.49
2019-05-14T03:41:02.078Z,1035.49
2019-05-14T03:42:02.270Z,1035.49
2019-05-14T03:43:02.482Z,1035.5
2019-05-14T03:44:01.708Z,1035.5
2019-05-14T03:45:02.021Z,1035.5
2019-05-14T03:46:02.221Z,1035.5
2019-05-14T03:47:09.280Z,1035.25
2019-05-14T03:48:02.631Z,1035.25
2019-05-14T03:49:01.776Z,1035.25
2019-05-14T03:50:02.121Z,1035.25
2019-05-14T03:51:02.365Z,1035.24
2019-05-14T03:52:02.514Z,1035.24
2019-05-14T03:53:02.198Z,1035.24
2019-05-14T03:54:12.112Z,1035.24
2019-05-14T03:55:05.306Z,1035.15
2019-05-14T03:56:02.530Z,1035.15
2019-05-14T03:57:01.691Z,1035.15
2019-05-14T03:58:02.017Z,1035.15
2019-05-14T03:59:02.455Z,1035.08
2019-05-14T04:00:03.700Z,1035.08
2019-05-14T04:01:02.654Z,1035.08
2019-05-14T04:02:01.731Z,1035.08
2019-05-14T04:03:01.952Z,1035.11
2019-05-14T04:04:02.225Z,1035.11
2019-05-14T04:05:02.557Z,1035.11
2019-05-14T04:06:02.875Z,1035.11
2019-05-14T04:07:01.900Z,1035.16
2019-05-14T04:08:02.037Z,1035.16
2019-05-14T04:09:01.990Z,1035.16
2019-05-14T04:10:02.239Z,1035.16
2019-05-14T04:11:02.437Z,1035.2
2019-05-14T04:12:01.681Z,1035.2
2019-05-14T04:13:01.913Z,1035.2
2019-05-14T04:14:02.196Z,1035.2
2019-05-14T04:15:02.391Z,1035.16
2019-05-14T04:16:02.543Z,1035.16
2019-05-14T04:17:16.382Z,1035.16
2019-05-14T04:18:02.029Z,1035.16
2019-05-14T04:19:02.326Z,1035.34
2019-05-14T04:20:02.575Z,1035.34
2019-05-14T04:21:01.897Z,1035.34
2019-05-14T04:22:01.857Z,1035.28
2019-05-14T04:23:02.091Z,1035.28
2019-05-14T04:24:02.295Z,1035.28
2019-05-14T04:25:02.620Z,1035.28
2019-05-14T04:26:01.688Z,1035.34
2019-05-14T04:27:13.142Z,1035.34
2019-05-14T04:28:02.143Z,1035.34
2019-05-14T04:29:02.501Z,1035.34
2019-05-14T04:30:01.916Z,1035.26
2019-05-14T04:31:01.864Z,1035.26
2019-05-14T04:32:02.156Z,1035.26
2019-05-14T04:33:02.356Z,1035.26
2019-05-14T04:34:02.659Z,1035.16
2019-05-14T04:35:01.896Z,1035.16
2019-05-14T04:36:02.236Z,1035.16
2019-05-14T04:37:02.480Z,1035.16
2019-05-14T04:38:01.677Z,1035.16
2019-05-14T04:39:01.886Z,1035.16
2019-05-14T04:40:02.230Z,1035.16
2019-05-14T04:41:02.339Z,1035.16
2019-05-14T04:42:02.584Z,1035.11
2019-05-14T04:43:01.811Z,1035.11
2019-05-14T04:44:02.090Z,1035.11
2019-05-14T04:45:06.295Z,1035.11
2019-05-14T04:46:02.597Z,1035.1
2019-05-14T04:47:35.777Z,1035.1
2019-05-14T04:48:02.004Z,1035.1
2019-05-14T04:49:02.253Z,1035.1
2019-05-14T04:50:02.041Z,1035.13
2019-05-14T04:51:02.156Z,1035.13
2019-05-14T04:52:02.437Z,1035.13
2019-05-14T04:53:02.685Z,1035.13
2019-05-14T04:54:01.805Z,1035.12
2019-05-14T04:55:01.806Z,1035.12
2019-05-14T04:56:02.025Z,1035.12
2019-05-14T04:57:02.386Z,1035.12
2019-05-14T04:58:02.547Z,1035.07
2019-05-14T04:59:02.510Z,1035.07
2019-05-14T05:00:03.876Z,1035.07
2019-05-14T05:01:01.811Z,1035.07
2019-05-14T05:02:02.040Z,1035.08
2019-05-14T05:03:02.247Z,1035.08
2019-05-14T05:04:02.512Z,1035.08
2019-05-14T05:05:02.693Z,1035.08
2019-05-14T05:06:01.853Z,1035.28
2019-05-14T05:07:02.109Z,1035.28
2019-05-14T05:08:02.251Z,1035.28
2019-05-14T05:09:02.477Z,1035.28
2019-05-14T05:10:01.671Z,1035.21
2019-05-14T05:11:01.908Z,1035.21
2019-05-14T05:12:02.164Z,1035.21
2019-05-14T05:13:02.368Z,1035.21
2019-05-14T05:14:01.732Z,1035.21
2019-05-14T05:15:02.028Z,1035.21
2019-05-14T05:16:02.305Z,1035.21
2019-05-14T05:17:02.482Z,1035.21
2019-05-14T05:18:01.737Z,1035.29
2019-05-14T05:19:02.195Z,1035.29
2019-05-14T05:20:02.450Z,1035.29
2019-05-14T05:21:02.595Z,1035.29
2019-05-14T05:22:01.819Z,1035.17
2019-05-14T05:23:02.102Z,1035.17
2019-05-14T05:24:02.285Z,1035.17
2019-05-14T05:25:02.456Z,1035.17
2019-05-14T05:26:01.752Z,1035.27
2019-05-14T05:27:01.950Z,1035.27
2019-05-14T05:28:02.161Z,1035.27
2019-05-14T05:29:10.567Z,1035.27
2019-05-14T05:30:02.642Z,1035.28
2019-05-14T05:31:01.831Z,1035.28
2019-05-14T05:32:02.007Z,1035.28
2019-05-14T05:33:02.243Z,1035.28
2019-05-14T05:34:02.508Z,1035.27
2019-05-14T05:35:01.724Z,1035.27
2019-05-14T05:36:02.022Z,1035.27
2019-05-14T05:37:02.258Z,1035.27
2019-05-14T05:38:02.498Z,1035.21
2019-05-14T05:39:01.682Z,1035.21
2019-05-14T05:40:01.944Z,1035.21
2019-05-14T05:41:02.189Z,1035.21
2019-05-14T05:42:02.468Z,1035.11
2019-05-14T05:43:01.759Z,1035.11
2019-05-14T05:44:01.893Z,1035.11
2019-05-14T05:45:02.236Z,1035.11
2019-05-14T05:46:02.421Z,1035.13
2019-05-14T05:47:01.709Z,1035.13
2019-05-14T05:48:02.289Z,1035.13
2019-05-14T05:49:02.191Z,1035.13
2019-05-14T05:50:02.562Z,1035.13
2019-05-14T05:51:01.812Z,1035.13
2019-05-14T05:52:02.060Z,1035.13
2019-05-14T05:53:02.309Z,1035.13
2019-05-14T05:54:02.238Z,1035.22
2019-05-14T05:55:02.460Z,1035.22
2019-05-14T05:56:01.794Z,1035.22
2019-05-14T05:57:01.937Z,1035.22
2019-05-14T05:58:02.243Z,1035.25
2019-05-14T05:59:02.416Z,1035.25
2019-05-14T06:00:05.160Z,1035.25
2019-05-14T06:01:01.829Z,1035.13
2019-05-14T06:02:01.978Z,1035.13
2019-05-14T06:03:01.972Z,1035.13
2019-05-14T06:04:02.155Z,1035.13
2019-05-14T06:05:02.389Z,1035.13
2019-05-14T06:06:01.652Z,1035.13
2019-05-14T06:07:03.114Z,1035.13
2019-05-14T06:08:02.171Z,1035.13
2019-05-14T06:09:02.421Z,1035.22
2019-05-14T06:10:02.623Z,1035.22
2019-05-14T06:11:01.845Z,1035.22
2019-05-14T06:12:01.698Z,1035.22
2019-05-14T06:13:02.568Z,1035.25
2019-05-14T06:14:01.757Z,1035.25
2019-05-14T06:15:02.022Z,1035.25
2019-05-14T06:16:02.302Z,1035.25
2019-05-14T06:17:02.468Z,1035.24
2019-05-14T06:18:19.526Z,1035.24
2019-05-14T06:19:01.852Z,1035.24
2019-05-14T06:20:02.149Z,1035.24
2019-05-14T06:21:02.407Z,1035.19
2019-05-14T06:22:04.684Z,1035.19
2019-05-14T06:23:01.881Z,1035.19
2019-05-14T06:24:03.415Z,1035.19
2019-05-14T06:25:02.664Z,1035.11
2019-05-14T06:26:02.481Z,1035.11
2019-05-14T06:27:02.585Z,1035.11
2019-05-14T06:28:01.955Z,1035.11
2019-05-14T06:29:02.223Z,1035.32
2019-05-14T06:30:02.349Z,1035.32
2019-05-14T06:31:02.529Z,1035.32
2019-05-14T06:32:01.667Z,1035.32
2019-05-14T06:33:01.888Z,1035.27
2019-05-14T06:34:02.234Z,1035.27
2019-05-14T06:35:02.394Z,1035.27
2019-05-14T06:36:02.576Z,1035.27
2019-05-14T06:37:01.758Z,1035.31
2019-05-14T06:38:02.003Z,1035.31
2019-05-14T06:39:02.340Z,1035.31
2019-05-14T06:40:02.556Z,1035.31
2019-05-14T06:41:01.794Z,1035.35
2019-05-14T06:42:02.085Z,1035.35
2019-05-14T06:43:02.306Z,1035.35
2019-05-14T06:44:02.554Z,1035.35
2019-05-14T06:45:01.795Z,1035.34
2019-05-14T06:46:02.683Z,1035.34
2019-05-14T06:47:01.855Z,1035.34
2019-05-14T06:48:02.125Z,1035.34
2019-05-14T06:49:02.428Z,1035.38
2019-05-14T06:50:02.680Z,1035.38
2019-05-14T06:51:01.859Z,1035.38
2019-05-14T06:52:02.074Z,1035.38
2019-05-14T06:53:02.232Z,1035.37
2019-05-14T06:54:02.675Z,1035.37
2019-05-14T06:55:01.823Z,1035.37
2019-05-14T06:56:02.181Z,1035.37
2019-05-14T06:57:02.286Z,1035.43
2019-05-14T06:58:02.482Z,1035.43
2019-05-14T06:59:01.718Z,1035.43
2019-05-14T07:00:03.582Z,1035.43
2019-05-14T07:01:02.513Z,1035.57
2019-05-14T07:02:02.684Z,1035.57
2019-05-14T07:03:01.899Z,1035.57
2019-05-14T07:04:02.533Z,1035.57
2019-05-14T07:05:01.850Z,1035.5
2019-05-14T07:06:02.135Z,1035.5
2019-05-14T07:07:02.305Z,1035.5
2019-05-14T07:08:02.565Z,1035.5
2019-05-14T07:09:01.838Z,1035.32
2019-05-14T07:10:02.060Z,1035.32
2019-05-14T07:11:02.255Z,1035.32
2019-05-14T07:12:02.566Z,1035.32
2019-05-14T07:13:01.820Z,1035.53
2019-05-14T07:14:02.103Z,1035.53
2019-05-14T07:15:02.355Z,1035.53
2019-05-14T07:16:02.481Z,1035.53
2019-05-14T07:17:01.735Z,1035.39
2019-05-14T07:18:01.999Z,1035.39
2019-05-14T07:19:02.195Z,1035.39
2019-05-14T07:20:02.434Z,1035.39
2019-05-14T07:21:02.604Z,1035.38
2019-05-14T07:22:01.797Z,1035.38
2019-05-14T07:23:02.087Z,1035.38
2019-05-14T07:24:02.335Z,1035.38
2019-05-14T07:25:03.856Z,1035.71
2019-05-14T07:26:01.639Z,1035.71
2019-05-14T07:27:01.910Z,1035.71
2019-05-14T07:28:02.182Z,1035.71
2019-05-14T07:29:02.440Z,1035.43
2019-05-14T07:30:01.788Z,1035.43
2019-05-14T07:31:01.978Z,1035.43
2019-05-14T07:32:02.204Z,1035.43
2019-05-14T07:33:02.536Z,1035.75
2019-05-14T07:34:01.698Z,1035.75
2019-05-14T07:35:01.945Z,1035.75
2019-05-14T07:36:02.256Z,1035.75
2019-05-14T07:37:02.374Z,1035.35
2019-05-14T07:38:02.575Z,1035.35
2019-05-14T07:39:01.886Z,1035.35
2019-05-14T07:40:02.108Z,1035.35
2019-05-14T07:41:01.800Z,1035.42
2019-05-14T07:42:01.983Z,1035.42
2019-05-14T07:43:02.203Z,1035.42
2019-05-14T07:44:02.424Z,1035.42
2019-05-14T07:45:02.692Z,1035.3
2019-05-14T07:46:01.897Z,1035.3
2019-05-14T07:47:02.175Z,1035.3
2019-05-14T07:48:02.363Z,1035.49
2019-05-14T07:49:11.779Z,1035.49
2019-05-14T07:50:01.978Z,1035.49
2019-05-14T07:51:02.175Z,1035.49
2019-05-14T07:52:02.325Z,1035.31
2019-05-14T07:53:03.627Z,1035.31
2019-05-14T07:54:01.734Z,1035.31
2019-05-14T07:55:01.967Z,1035.31
2019-05-14T07:56:02.237Z,1035.49
2019-05-14T07:57:02.348Z,1035.49
2019-05-14T07:58:02.553Z,1035.49
2019-05-14T07:59:02.724Z,1035.49
2019-05-14T08:00:04.988Z,1035.34
2019-05-14T08:01:02.322Z,1035.34
2019-05-14T08:02:02.442Z,1035.34
2019-05-14T08:03:01.742Z,1035.34
2019-05-14T08:04:01.977Z,1035.28
2019-05-14T08:05:02.330Z,1035.28
2019-05-14T08:06:02.550Z,1035.28
2019-05-14T08:07:01.728Z,1035.28
2019-05-14T08:08:01.963Z,1035.05
2019-05-14T08:09:02.181Z,1035.05
2019-05-14T08:10:02.507Z,1035.05
2019-05-14T08:11:01.764Z,1035.05
2019-05-14T08:12:01.986Z,1035.11
2019-05-14T08:13:02.197Z,1035.11
2019-05-14T08:14:02.423Z,1035.11
2019-05-14T08:15:22.234Z,1035.11
2019-05-14T08:16:01.967Z,1035.2
2019-05-14T08:17:02.225Z,1035.2
2019-05-14T08:18:02.353Z,1035.2
2019-05-14T08:19:20.943Z,1035.2
2019-05-14T08:20:01.665Z,1035.05
2019-05-14T08:21:01.929Z,1035.05
2019-05-14T08:22:02.139Z,1035.05
2019-05-14T08:23:02.275Z,1035.05
2019-05-14T08:24:02.449Z,1035.07
2019-05-14T08:25:02.521Z,1035.07
2019-05-14T08:26:04.924Z,1035.07
2019-05-14T08:27:02.001Z,1035.07
2019-05-14T08:28:02.125Z,1034.98
2019-05-14T08:29:02.539Z,1034.98
2019-05-14T08:30:01.816Z,1034.98
2019-05-14T08:31:02.133Z,1034.98
2019-05-14T08:32:02.359Z,1035.04
2019-05-14T08:33:02.575Z,1035.04
2019-05-14T08:34:06.214Z,1035.04
2019-05-14T08:35:02.103Z,1035.04
2019-05-14T08:36:02.368Z,1034.93
2019-05-14T08:37:05.486Z,1034.93
2019-05-14T08:38:12.022Z,1034.93
2019-05-14T08:39:02.021Z,1034.93
2019-05-14T08:40:02.242Z,1034.94
2019-05-14T08:41:02.500Z,1034.94
2019-05-14T08:42:04.715Z,1034.94
2019-05-14T08:43:01.933Z,1034.94
2019-05-14T08:44:02.157Z,1034.94
2019-05-14T08:45:13.555Z,1034.94
2019-05-14T08:46:02.678Z,1034.94
2019-05-14T08:47:01.780Z,1034.94
2019-05-14T08:48:02.003Z,1034.86
2019-05-14T08:49:02.285Z,1034.86
2019-05-14T08:50:01.770Z,1034.86
2019-05-14T08:51:01.919Z,1034.86
2019-05-14T08:52:01.787Z,1034.75
2019-05-14T08:53:02.589Z,1034.75
2019-05-14T08:54:02.045Z,1034.75
2019-05-14T08:55:14.321Z,1034.75
2019-05-14T08:56:02.555Z,1034.78
2019-05-14T08:57:01.782Z,1034.78
2019-05-14T08:58:02.291Z,1034.78
2019-05-14T08:59:02.276Z,1034.78
2019-05-14T09:00:04.085Z,1034.61
2019-05-14T09:01:01.754Z,1034.61
2019-05-14T09:02:10.842Z,1034.61
2019-05-14T09:03:03.644Z,1034.61
2019-05-14T09:04:02.430Z,1034.82
2019-05-14T09:05:05.356Z,1034.82
2019-05-14T09:06:01.984Z,1034.82
2019-05-14T09:07:02.165Z,1034.82
2019-05-14T09:08:02.344Z,1034.77
2019-05-14T09:09:02.665Z,1034.77
2019-05-14T09:10:01.850Z,1034.77
2019-05-14T09:11:02.094Z,1034.77
2019-05-14T09:12:02.376Z,1034.77
2019-05-14T09:13:03.320Z,1034.77
2019-05-14T09:14:01.672Z,1034.77
2019-05-14T09:15:01.916Z,1034.77
2019-05-14T09:16:02.130Z,1034.68
2019-05-14T09:17:02.313Z,1034.68
2019-05-14T09:18:04.291Z,1034.68
2019-05-14T09:19:02.592Z,1034.68
2019-05-14T09:20:11.328Z,1034.83
2019-05-14T09:21:02.170Z,1034.83
2019-05-14T09:22:02.416Z,1034.83
2019-05-14T09:23:02.599Z,1034.83
2019-05-14T09:24:01.815Z,1034.67
2019-05-14T09:25:02.062Z,1034.67
2019-05-14T09:26:02.209Z,1034.67
2019-05-14T09:27:08.239Z,1034.67
2019-05-14T09:28:02.564Z,1034.75
2019-05-14T09:29:25.964Z,1034.75
2019-05-14T09:30:02.427Z,1034.75
2019-05-14T09:31:02.386Z,1034.62
2019-05-14T09:32:02.569Z,1034.62
2019-05-14T09:33:01.781Z,1034.62
2019-05-14T09:34:02.070Z,1034.62
2019-05-14T09:35:02.355Z,1034.65
2019-05-14T09:36:23.608Z,1034.65
2019-05-14T09:37:01.710Z,1034.65
2019-05-14T09:38:01.918Z,1034.65
2019-05-14T09:39:02.149Z,1034.55
2019-05-14T09:40:02.446Z,1034.55
2019-05-14T09:41:15.576Z,1034.55
2019-05-14T09:42:01.771Z,1034.55
2019-05-14T09:43:02.083Z,1034.52
2019-05-14T09:44:02.280Z,1034.52
2019-05-14T09:45:02.589Z,1034.52
2019-05-14T09:46:01.815Z,1034.52
2019-05-14T09:47:02.094Z,1034.58
2019-05-14T09:48:02.314Z,1034.58
2019-05-14T09:49:02.519Z,1034.58
2019-05-14T09:50:23.187Z,1034.58
2019-05-14T09:51:01.852Z,1034.61
2019-05-14T09:52:02.087Z,1034.61
2019-05-14T09:53:02.200Z,1034.61
2019-05-14T09:54:02.554Z,1034.61
2019-05-14T09:55:02.304Z,1034.54
2019-05-14T09:56:02.527Z,1034.54
2019-05-14T09:57:01.730Z,1034.54
2019-05-14T09:58:02.007Z,1034.54
2019-05-14T09:59:02.084Z,1034.36
2019-05-14T10:00:05.403Z,1034.36
2019-05-14T10:01:02.302Z,1034.36
2019-05-14T10:02:02.490Z,1034.36
2019-05-14T10:03:01.789Z,1034.32
2019-05-14T10:04:02.024Z,1034.32
2019-05-14T10:05:02.147Z,1034.32
2019-05-14T10:06:02.408Z,1034.32
2019-05-14T10:07:01.883Z,1034.38
2019-05-14T10:08:02.094Z,1034.38
2019-05-14T10:09:02.400Z,1034.38
2019-05-14T10:10:02.900Z,1034.38
2019-05-14T10:11:01.774Z,1034.2
2019-05-14T10:12:02.037Z,1034.2
2019-05-14T10:13:02.367Z,1034.2
2019-05-14T10:14:02.448Z,1034.2
2019-05-14T10:15:02.841Z,1034.24
2019-05-14T10:16:01.840Z,1034.24
2019-05-14T10:17:02.040Z,1034.24
2019-05-14T10:18:02.357Z,1034.24
2019-05-14T10:19:02.612Z,1034.11
2019-05-14T10:20:01.852Z,1034.11
2019-05-14T10:21:02.064Z,1034.11
2019-05-14T10:22:02.302Z,1034.11
2019-05-14T10:23:02.509Z,1034.09
2019-05-14T10:24:01.763Z,1034.09
2019-05-14T10:25:01.981Z,1034.09
2019-05-14T10:26:02.189Z,1034.09
2019-05-14T10:27:02.333Z,1034.09
2019-05-14T10:28:02.531Z,1034.09
2019-05-14T10:29:01.776Z,1034.09
2019-05-14T10:30:02.175Z,1034.09
2019-05-14T10:31:04.154Z,1034.04
2019-05-14T10:32:02.482Z,1034.04
2019-05-14T10:33:15.239Z,1034.04
2019-05-14T10:34:01.942Z,1034.04
2019-05-14T10:35:02.146Z,1034.01
2019-05-14T10:36:02.336Z,1034.01
2019-05-14T10:37:02.627Z,1034.01
2019-05-14T10:38:01.839Z,1034.01
2019-05-14T10:39:02.130Z,1034.06
2019-05-14T10:40:02.130Z,1034.06
2019-05-14T10:41:02.353Z,1034.06
2019-05-14T10:42:02.635Z,1034.06
2019-05-14T10:43:02.064Z,1033.91
2019-05-14T10:44:02.270Z,1033.91
2019-05-14T10:45:02.571Z,1033.91
2019-05-14T10:46:01.787Z,1033.91
2019-05-14T10:47:02.020Z,1033.94
2019-05-14T10:48:02.031Z,1033.94
2019-05-14T10:49:23.760Z,1033.94
2019-05-14T10:50:02.335Z,1033.94
2019-05-14T10:51:04.082Z,1033.8
2019-05-14T10:52:01.814Z,1033.8
2019-05-14T10:53:02.113Z,1033.8
2019-05-14T10:54:25.659Z,1033.8
2019-05-14T10:55:02.500Z,1033.8
2019-05-14T10:56:01.722Z,1033.8
2019-05-14T10:57:02.010Z,1033.8
2019-05-14T10:58:02.350Z,1033.8
2019-05-14T10:59:02.514Z,1033.95
2019-05-14T11:00:09.338Z,1033.95
2019-05-14T11:01:02.196Z,1033.95
2019-05-14T11:02:02.448Z,1033.95
2019-05-14T11:03:02.699Z,1033.94
2019-05-14T11:04:01.846Z,1033.94
2019-05-14T11:05:02.057Z,1033.94
2019-05-14T11:06:02.258Z,1033.94
2019-05-14T11:07:02.596Z,1033.85
2019-05-14T11:08:01.767Z,1033.85
2019-05-14T11:09:02.029Z,1033.85
2019-05-14T11:10:02.355Z,1033.85
2019-05-14T11:11:04.702Z,1033.81
2019-05-14T11:12:01.777Z,1033.81
2019-05-14T11:13:02.072Z,1033.81
2019-05-14T11:14:02.218Z,1033.56
2019-05-14T11:15:02.508Z,1033.56
2019-05-14T11:16:01.688Z,1033.56
2019-05-14T11:17:01.980Z,1033.56
2019-05-14T11:18:02.180Z,1033.61
2019-05-14T11:19:02.417Z,1033.61
2019-05-14T11:20:02.371Z,1033.61
2019-05-14T11:21:29.191Z,1033.61
2019-05-14T11:22:02.546Z,1033.62
2019-05-14T11:23:01.756Z,1033.62
2019-05-14T11:24:02.018Z,1033.62
2019-05-14T11:25:02.430Z,1033.62
2019-05-14T11:26:02.618Z,1033.53
2019-05-14T11:27:01.894Z,1033.53
2019-05-14T11:28:02.119Z,1033.53
2019-05-14T11:29:01.883Z,1033.53
2019-05-14T11:30:02.205Z,1033.51
2019-05-14T11:31:02.305Z,1033.51
2019-05-14T11:32:02.545Z,1033.51
2019-05-14T11:33:01.805Z,1033.51
2019-05-14T11:34:01.981Z,1033.39
2019-05-14T11:35:02.258Z,1033.39
2019-05-14T11:36:02.397Z,1033.39
2019-05-14T11:37:02.596Z,1033.39
2019-05-14T11:38:01.843Z,1033.45
2019-05-14T11:39:04.530Z,1033.45
2019-05-14T11:40:02.390Z,1033.45
2019-05-14T11:41:02.496Z,1033.45
2019-05-14T11:42:01.667Z,1033.39
2019-05-14T11:43:01.913Z,1033.39
2019-05-14T11:44:02.129Z,1033.39
2019-05-14T11:45:02.463Z,1033.39
2019-05-14T11:46:02.595Z,1033.48
2019-05-14T11:47:03.127Z,1033.48
2019-05-14T11:48:02.087Z,1033.48
2019-05-14T11:49:02.256Z,1033.48
2019-05-14T11:50:02.524Z,1033.38
2019-05-14T11:51:01.773Z,1033.38
2019-05-14T11:52:11.692Z,1033.38
2019-05-14T11:53:02.101Z,1033.38
2019-05-14T11:54:02.488Z,1033.29
2019-05-14T11:55:01.797Z,1033.29
2019-05-14T11:56:02.038Z,1033.29
2019-05-14T11:57:02.283Z,1033.29
2019-05-14T11:58:02.561Z,1033.29
2019-05-14T11:59:01.712Z,1033.29
2019-05-14T12:00:04.027Z,1033.29
2019-05-14T12:01:01.903Z,1033.29
2019-05-14T12:02:02.203Z,1033.24
2019-05-14T12:03:02.415Z,1033.24
2019-05-14T12:04:02.644Z,1033.24
2019-05-14T12:05:01.841Z,1033.24
2019-05-14T12:06:02.040Z,1033.21
2019-05-14T12:07:02.317Z,1033.21